Terminal Aerodrome Forecast
Issued by NWS Blacksburg, VA

Home | Current Version | Previous Version | Text Only | Print | Product List | Glossary On
Versions: 1 2 3 4 5 6 7 8 9 10 11 12 13 14 15 16 17 18 19 20 21
000
FTUS41 KRNK 201129
TAFLYH
TAF
KLYH 201129Z 2012/2112 VRB03KT P6SM OVC050
     FM201400 VRB03KT P6SM -RA OVC030
      TEMPO 2014/2017 2SM RA BR OVC011
     FM201700 VRB03KT 6SM -RA BR OVC015
     FM201800 VRB03KT P6SM OVC015
     FM210900 00000KT 1/4SM FG OVC001=

USA.gov is the U.S. government's official web portal to all federal, state and local government web resources and services.